Time;durP1;ratioP1;P1;durP2;ratioP2;P2;SDS_P1;SDS_P2;PMS_P1;PMS_P2;Temp;Humidity;BMP_temperature;BMP_pressure;BME280_temperature;BME280_humidity;BME280_pressure;Samples;Min_cycle;Max_cycle;Signal;HPM_P1;HPM_P2
2022/02/04 00:01:31;;;;;;;61.63;26.02;;;;;;;4.24;96.03;100335.22;1693401;82;98846;-75
2022/02/04 00:22:18;;;;;;;59.10;25.62;;;;;;;4.31;96.27;100320.49;1678023;83;28114;-74
2022/02/04 00:24:19;;;;;;;59.90;26.37;;;;;;;4.31;96.24;100315.19;1729931;81;98699;-74
2022/02/04 00:26:53;;;;;;;58.28;27.05;;;;;;;4.33;96.28;100321.33;1696130;82;25854;-74
2022/02/04 00:29:24;;;;;;;59.65;26.97;;;;;;;4.33;96.29;100321.33;1683229;83;98793;-76
2022/02/04 00:31:50;;;;;;;60.63;27.30;;;;;;;4.32;96.30;100311.63;1673232;83;25766;-76
2022/02/04 00:34:16;;;;;;;61.50;27.67;;;;;;;4.27;96.37;100308.20;1681597;83;28198;-76
2022/02/04 00:36:50;;;;;;;59.42;24.70;;;;;;;4.32;96.30;100317.80;1688299;83;98485;-76
2022/02/04 00:39:20;;;;;;;62.53;26.62;;;;;;;4.28;96.39;100307.30;1668824;84;25851;-76
2022/02/04 00:41:40;;;;;;;53.98;24.85;;;;;;;4.32;96.37;100320.45;1693194;82;98731;-76
2022/02/04 00:44:11;;;;;;;52.58;26.27;;;;;;;4.34;96.43;100319.97;1696560;82;25825;-76
2022/02/04 00:49:15;;;;;;;58.58;26.05;;;;;;;4.35;96.48;100312.88;1693392;82;25958;-76
2022/02/04 00:51:45;;;;;;;51.37;25.02;;;;;;;4.34;96.46;100308.03;1687141;83;25934;-76
2022/02/04 01:26:32;;;;;;;42.73;22.20;;;;;;;4.37;96.71;100284.08;1669580;83;27608;-77
2022/02/04 01:28:58;;;;;;;48.10;24.40;;;;;;;4.38;96.73;100279.64;1651806;85;98924;-76
2022/02/04 01:31:24;;;;;;;50.85;22.95;;;;;;;4.37;96.69;100273.91;1648857;85;25864;-76
2022/02/04 01:33:53;;;;;;;54.60;24.30;;;;;;;4.37;96.73;100272.59;1661353;85;26328;-76
2022/02/04 01:36:19;;;;;;;45.78;24.02;;;;;;;4.39;96.77;100276.08;1633418;85;98800;-76
2022/02/04 01:38:46;;;;;;;44.63;22.93;;;;;;;4.39;96.77;100272.09;1665558;84;27478;-76
2022/02/04 01:41:12;;;;;;;48.15;22.42;;;;;;;4.39;96.73;100261.48;1656438;85;98701;-77
2022/02/04 01:43:40;;;;;;;48.55;23.35;;;;;;;4.38;96.78;100263.72;1646390;85;26027;-77
2022/02/04 01:46:10;;;;;;;42.05;21.70;;;;;;;4.37;96.77;100260.20;1651954;85;25804;-76
2022/02/04 01:48:37;;;;;;;42.27;21.25;;;;;;;4.37;96.77;100260.65;1646373;85;98525;-77
2022/02/04 01:51:06;;;;;;;44.75;21.75;;;;;;;4.37;96.77;100254.02;1647949;85;26675;-76
2022/02/04 01:53:33;;;;;;;45.17;22.37;;;;;;;4.38;96.79;100245.14;1651620;85;98634;-76
2022/02/04 01:56:05;;;;;;;46.73;20.65;;;;;;;4.36;96.78;100238.55;1649361;85;26570;-77
2022/02/04 01:58:32;;;;;;;47.78;21.50;;;;;;;4.36;96.81;100241.20;1660845;84;98857;-76
2022/02/04 02:00:59;;;;;;;44.77;21.73;;;;;;;4.38;96.83;100234.53;1645776;85;25894;-76
2022/02/04 02:03:26;;;;;;;49.50;22.15;;;;;;;4.38;96.86;100246.47;1652177;85;27509;-76
2022/02/04 02:05:56;;;;;;;40.70;21.30;;;;;;;4.38;96.85;100232.75;1650840;85;98774;-76
2022/02/04 02:08:21;;;;;;;39.33;19.92;;;;;;;4.39;96.88;100230.97;1649752;85;25900;-76
2022/02/04 02:10:48;;;;;;;41.83;22.55;;;;;;;4.39;96.88;100226.53;1651143;85;98869;-75
2022/02/04 02:43:28;;;;;;;42.98;21.52;;;;;;;4.46;97.19;100208.67;1686075;83;28067;-74
2022/02/04 02:48:55;;;;;;;48.70;22.48;;;;;;;4.49;97.21;100205.49;1691165;83;98765;-74
2022/02/04 02:54:35;;;;;;;53.25;24.67;;;;;;;4.52;97.17;100210.72;1683396;83;98629;-74
2022/02/04 02:59:35;;;;;;;47.70;23.05;;;;;;;4.51;97.19;100219.59;1668716;83;98766;-74
2022/02/04 03:01:55;;;;;;;49.40;22.75;;;;;;;4.52;97.21;100217.36;1660541;84;25901;-74
2022/02/04 03:04:20;;;;;;;53.28;24.70;;;;;;;4.52;97.24;100217.81;1663924;84;98926;-74
2022/02/04 03:06:48;;;;;;;42.15;21.77;;;;;;;4.53;97.24;100220.42;1668205;84;25874;-74
2022/02/04 03:09:17;;;;;;;58.02;24.50;;;;;;;4.54;97.20;100219.97;1671600;82;27442;-74
2022/02/04 03:11:44;;;;;;;44.93;22.32;;;;;;;4.53;97.19;100224.86;1675466;82;99104;-74
2022/02/04 03:14:10;;;;;;;44.53;23.27;;;;;;;4.53;97.20;100225.73;1674010;83;25793;-74
2022/02/04 03:16:37;;;;;;;53.73;24.32;;;;;;;4.54;97.21;100222.63;1666464;84;98926;-74
2022/02/04 03:19:06;;;;;;;44.05;22.58;;;;;;;4.53;97.19;100224.41;1669935;83;25846;-75
2022/02/04 03:21:39;;;;;;;47.40;23.38;;;;;;;4.54;97.24;100219.52;1670578;84;28297;-76
2022/02/04 03:24:07;;;;;;;49.35;23.62;;;;;;;4.50;97.30;100216.52;1668764;84;98791;-76
2022/02/04 03:26:37;;;;;;;43.08;23.05;;;;;;;4.57;97.34;100223.87;1668994;83;25956;-76
2022/02/04 03:28:59;;;;;;;51.58;23.95;;;;;;;4.56;97.33;100225.66;1658539;83;98116;-75
2022/02/04 03:31:28;;;;;;;45.65;22.65;;;;;;;4.57;97.29;100222.55;1649632;85;25785;-75
2022/02/04 03:33:52;;;;;;;42.70;22.58;;;;;;;4.56;97.32;100219.02;1652598;83;27385;-74
2022/02/04 03:36:18;;;;;;;45.20;22.55;;;;;;;4.59;97.38;100219.39;1652910;85;98784;-75
2022/02/04 03:38:44;;;;;;;45.25;22.13;;;;;;;4.59;97.43;100222.05;1640803;85;25924;-75
2022/02/04 03:41:11;;;;;;;39.65;22.30;;;;;;;4.60;97.36;100224.25;1655629;84;98692;-76
2022/02/04 03:43:38;;;;;;;47.95;22.52;;;;;;;4.59;97.36;100223.84;1637998;85;25967;-75
2022/02/04 03:46:05;;;;;;;45.00;22.98;;;;;;;4.58;97.36;100224.75;1686274;83;28106;-75
2022/02/04 03:48:33;;;;;;;42.55;21.68;;;;;;;4.59;97.41;100223.84;1686276;82;98688;-75
2022/02/04 03:50:59;;;;;;;39.10;21.52;;;;;;;4.59;97.40;100219.85;1623353;85;25775;-75
2022/02/04 03:53:25;;;;;;;42.20;21.33;;;;;;;4.59;97.39;100227.81;1656311;83;98644;-74
2022/02/04 03:55:51;;;;;;;40.35;20.27;;;;;;;4.59;97.45;100227.81;1653324;84;25947;-75
2022/02/04 03:58:16;;;;;;;46.90;23.57;;;;;;;4.58;97.38;100223.42;1648922;85;98929;-76
2022/02/04 04:00:43;;;;;;;42.08;21.77;;;;;;;4.53;97.41;100215.58;1662899;83;26453;-75
2022/02/04 04:03:09;;;;;;;38.75;21.35;;;;;;;4.55;97.41;100219.06;1651216;84;25776;-75
2022/02/04 04:05:38;;;;;;;48.00;21.75;;;;;;;4.54;97.44;100215.98;1664892;83;98787;-74
2022/02/04 04:08:03;;;;;;;39.10;20.12;;;;;;;4.54;97.47;100215.98;1666881;84;25977;-74
2022/02/04 04:10:37;;;;;;;43.00;21.48;;;;;;;4.53;97.45;100211.14;1713127;82;98825;-74
2022/02/04 04:12:58;;;;;;;41.37;20.85;;;;;;;4.55;97.49;100212.42;1714661;82;25689;-75
2022/02/04 04:15:24;;;;;;;44.98;20.20;;;;;;;4.54;97.49;100207.57;1715354;82;25726;-74
2022/02/04 04:17:50;;;;;;;43.75;21.77;;;;;;;4.55;97.56;100205.34;1713068;82;98806;-74
2022/02/04 04:20:22;;;;;;;44.53;22.20;;;;;;;4.54;97.53;100203.59;1716188;82;25837;-75
2022/02/04 04:22:49;;;;;;;46.68;22.90;;;;;;;4.53;97.55;100200.98;1711937;82;98903;-75
2022/02/04 04:25:17;;;;;;;46.00;22.87;;;;;;;4.53;97.57;100193.88;1715318;82;25877;-75
2022/02/04 04:27:44;;;;;;;41.05;22.02;;;;;;;4.53;97.57;100199.20;1715781;81;25818;-75
2022/02/04 04:30:14;;;;;;;43.65;21.60;;;;;;;4.53;97.57;100193.02;1728418;81;98704;-75
2022/02/04 04:32:41;;;;;;;46.98;22.32;;;;;;;4.53;97.57;100184.59;1732243;81;25801;-75
2022/02/04 04:35:12;;;;;;;42.85;23.10;;;;;;;4.54;97.60;100184.14;1725723;81;98694;-76
2022/02/04 04:37:48;;;;;;;49.77;23.42;;;;;;;4.55;97.65;100181.91;1727042;81;25995;-76
2022/02/04 04:43:01;;;;;;;46.23;21.77;;;;;;;4.48;97.61;100167.92;1727310;81;98521;-75
2022/02/04 05:31:20;;;;;;;45.88;22.37;;;;;;;4.59;97.83;100174.73;1671667;84;26471;-74
2022/02/04 05:33:46;;;;;;;45.55;22.85;;;;;;;4.59;97.82;100179.59;1674382;84;26531;-74
2022/02/04 05:36:12;;;;;;;46.13;24.07;;;;;;;4.60;97.81;100182.66;1673339;84;98673;-74
2022/02/04 05:38:40;;;;;;;48.23;24.18;;;;;;;4.59;97.82;100179.59;1714266;82;25792;-74
2022/02/04 05:41:10;;;;;;;45.95;23.22;;;;;;;4.60;97.85;100180.00;1714805;82;98779;-75
2022/02/04 05:43:39;;;;;;;50.88;23.45;;;;;;;4.62;97.88;100186.14;1717413;82;25745;-74
2022/02/04 05:46:11;;;;;;;50.80;24.18;;;;;;;4.61;97.84;100187.51;1724668;81;26007;-74
2022/02/04 05:48:35;;;;;;;48.48;24.82;;;;;;;4.49;98.13;100164.36;1713449;82;98722;-74
2022/02/04 05:53:36;;;;;;;56.58;26.75;;;;;;;4.62;97.93;100186.59;1717224;82;97823;-74
2022/02/04 05:56:07;;;;;;;50.48;24.98;;;;;;;4.62;97.91;100191.45;1711788;82;25695;-74
2022/02/04 05:58:39;;;;;;;51.20;24.18;;;;;;;4.61;97.90;100192.81;1707938;82;98823;-75
2022/02/04 06:06:58;;;;;;;50.92;24.05;;;;;;;4.60;97.94;100183.11;1711367;82;98645;-75
2022/02/04 06:09:24;;;;;;;46.58;24.60;;;;;;;4.59;97.97;100182.69;1712751;82;25743;-74
2022/02/04 06:11:46;;;;;;;54.35;26.23;;;;;;;4.58;98.00;100187.13;1713701;82;98623;-74
2022/02/04 06:22:23;;;;;;;49.42;25.15;;;;;;;4.62;98.11;100196.75;1719041;82;26085;-77
2022/02/04 06:24:51;;;;;;;58.78;25.45;;;;;;;4.64;98.13;100192.28;1702012;82;98454;-74
2022/02/04 06:27:38;;;;;;;53.68;24.82;;;;;;;4.64;98.11;100194.94;1707981;82;26269;-75
2022/02/04 06:30:06;;;;;;;51.70;23.83;;;;;;;4.65;98.11;100196.67;1696712;82;98813;-74
2022/02/04 06:32:33;;;;;;;46.65;23.70;;;;;;;4.65;98.12;100196.67;1707667;82;28456;-72
2022/02/04 06:34:59;;;;;;;52.55;24.00;;;;;;;4.65;98.09;100200.66;1694118;82;98951;-73
2022/02/04 06:37:26;;;;;;;44.00;22.37;;;;;;;4.63;98.04;100203.80;1695165;82;25758;-72
2022/02/04 06:39:52;;;;;;;52.88;25.00;;;;;;;4.62;98.08;100204.72;1693745;82;26581;-74
2022/02/04 06:42:25;;;;;;;49.95;24.10;;;;;;;4.64;98.09;100210.86;1682794;83;98755;-74
2022/02/04 06:44:52;;;;;;;45.78;21.57;;;;;;;4.52;98.11;100189.48;1684720;83;27516;-73
2022/02/04 06:47:19;;;;;;;49.10;23.20;;;;;;;4.66;98.18;100213.47;1649610;84;98818;-73
2022/02/04 06:49:47;;;;;;;52.05;24.43;;;;;;;4.66;98.17;100216.13;1644451;84;25819;-72
2022/02/04 06:52:14;;;;;;;44.73;21.97;;;;;;;4.66;98.15;100208.16;1655607;84;25861;-72
2022/02/04 06:54:41;;;;;;;53.60;26.40;;;;;;;4.67;98.14;100205.47;1648388;84;98873;-73
2022/02/04 06:57:06;;;;;;;48.60;23.60;;;;;;;4.69;98.14;100210.74;1651536;84;27831;-72
2022/02/04 06:59:34;;;;;;;45.48;24.72;;;;;;;4.68;98.13;100212.98;1653699;84;98790;-73
2022/02/04 07:02:01;;;;;;;59.33;26.10;;;;;;;4.70;98.14;100207.17;1658004;84;25854;-75
2022/02/04 07:04:31;;;;;;;53.92;26.05;;;;;;;4.69;98.14;100216.92;1650924;84;25789;-74
2022/02/04 07:06:57;;;;;;;50.38;25.52;;;;;;;4.69;98.14;100210.74;1653300;83;99107;-74
2022/02/04 07:09:29;;;;;;;59.53;27.15;;;;;;;4.69;98.14;100209.41;1660757;84;29440;-74
2022/02/04 07:12:19;;;;;;;48.92;25.08;;;;;;;4.70;98.18;100212.48;1652906;84;98669;-73
2022/02/04 07:14:48;;;;;;;57.05;27.70;;;;;;;4.72;98.22;100211.53;1656039;84;26094;-76
2022/02/04 07:19:49;;;;;;;50.88;25.97;;;;;;;4.75;98.25;100209.25;1649053;84;25749;-73
2022/02/04 07:22:29;;;;;;;54.60;27.13;;;;;;;4.75;98.23;100207.47;1660970;84;27563;-73
2022/02/04 07:24:59;;;;;;;56.98;26.57;;;;;;;4.75;98.22;100207.92;1659460;84;98633;-73
2022/02/04 07:27:30;;;;;;;54.63;26.48;;;;;;;4.75;98.27;100215.44;1648262;84;25802;-73
2022/02/04 07:29:57;;;;;;;58.60;28.12;;;;;;;4.76;98.29;100213.19;1639206;84;98679;-72
2022/02/04 07:32:34;;;;;;;52.15;26.82;;;;;;;4.79;98.30;100212.23;1651767;84;25996;-73
2022/02/04 07:43:02;;;;;;;56.88;27.60;;;;;;;4.86;98.29;100212.48;1639741;84;98540;-74
2022/02/04 07:45:29;;;;;;;57.03;27.87;;;;;;;4.87;98.26;100211.58;1650033;84;25854;-73
2022/02/04 07:47:55;;;;;;;62.15;28.32;;;;;;;4.87;98.25;100206.27;1640471;84;98705;-74
2022/02/04 07:50:21;;;;;;;63.05;27.62;;;;;;;4.88;98.27;100212.86;1646819;84;27278;-75
2022/02/04 07:52:48;;;;;;;61.60;30.30;;;;;;;4.93;98.32;100215.85;1643074;84;98068;-78
2022/02/04 07:55:14;;;;;;;62.45;28.65;;;;;;;4.95;98.32;100206.93;1643772;84;26310;-74
2022/02/04 07:57:41;;;;;;;58.45;26.50;;;;;;;4.96;98.33;100213.11;1643251;84;25974;-74
2022/02/04 08:00:10;;;;;;;65.97;26.62;;;;;;;4.97;98.33;100214.86;1624740;85;98897;-75
2022/02/04 08:02:36;;;;;;;56.48;26.27;;;;;;;4.98;98.31;100217.92;1632786;84;25846;-75
2022/02/04 08:05:05;;;;;;;55.38;24.57;;;;;;;4.99;98.35;100211.25;1652782;84;99017;-74
2022/02/04 08:07:38;;;;;;;55.70;26.20;;;;;;;5.03;98.37;100218.67;1649477;84;25813;-75
2022/02/04 08:10:12;;;;;;;51.80;25.20;;;;;;;5.04;98.35;100221.28;1648268;84;26346;-73
2022/02/04 08:13:16;;;;;;;49.63;24.25;;;;;;;5.04;98.38;100215.10;1641813;84;98883;-74
2022/02/04 08:23:19;;;;;;;52.93;23.90;;;;;;;5.08;98.45;100219.42;1641081;84;100496;-75
2022/02/04 08:31:16;;;;;;;55.45;26.77;;;;;;;5.15;98.44;100219.66;1675530;83;99194;-75
2022/02/04 08:33:49;;;;;;;53.42;26.45;;;;;;;5.15;98.45;100215.67;1678732;81;25809;-76
2022/02/04 08:36:16;;;;;;;47.70;24.15;;;;;;;5.16;98.45;100216.96;1672283;83;98767;-75
2022/02/04 08:49:27;;;;;;;59.83;27.45;;;;;;;5.26;98.47;100218.87;1641958;84;98674;-73
2022/02/04 08:54:20;;;;;;;62.78;27.80;;;;;;;5.28;98.50;100230.32;1672141;83;99115;-74
2022/02/04 08:59:17;;;;;;;63.13;28.60;;;;;;;5.28;98.44;100222.35;1673173;82;99168;-77
2022/02/04 09:01:46;;;;;;;59.77;29.40;;;;;;;5.28;98.46;100221.02;1683895;83;25967;-74
2022/02/04 09:04:11;;;;;;;57.33;28.15;;;;;;;5.29;98.49;100229.41;1667388;83;28957;-74
2022/02/04 09:06:43;;;;;;;58.17;29.30;;;;;;;5.27;98.46;100221.94;1675644;83;98664;-74
2022/02/04 09:09:06;;;;;;;53.20;26.95;;;;;;;5.27;98.50;100215.75;1678130;83;25960;-75
2022/02/04 09:17:01;;;;;;;51.25;25.37;;;;;;;5.33;98.46;100215.12;1681139;83;98992;-74
2022/02/04 09:19:38;;;;;;;55.67;26.97;;;;;;;5.33;98.46;100216.91;1660857;84;25804;-75
2022/02/04 09:24:24;;;;;;;45.75;25.55;;;;;;;5.37;98.53;100219.89;1690051;82;98729;-76
2022/02/04 09:26:52;;;;;;;48.92;24.35;;;;;;;5.38;98.49;100219.84;1693212;82;25861;-76
2022/02/04 09:29:18;;;;;;;51.77;25.68;;;;;;;5.39;98.48;100222.91;1656050;84;99001;-74
2022/02/04 09:31:44;;;;;;;45.45;26.17;;;;;;;5.40;98.44;100222.00;1658439;84;25820;-74
2022/02/04 09:34:11;;;;;;;49.65;24.05;;;;;;;5.42;98.44;100222.83;1659600;84;25717;-73
2022/02/04 09:36:38;;;;;;;51.68;25.50;;;;;;;5.42;98.41;100223.28;1655192;84;98712;-75
2022/02/04 09:39:07;;;;;;;54.73;27.17;;;;;;;5.42;98.28;100220.17;1653600;84;25805;-75
2022/02/04 09:41:34;;;;;;;51.18;26.05;;;;;;;5.43;98.32;100221.91;1660063;84;99224;-73
2022/02/04 09:44:01;;;;;;;50.70;26.07;;;;;;;5.45;98.36;100216.55;1666622;83;25846;-75
2022/02/04 09:46:29;;;;;;;50.12;25.35;;;;;;;5.46;98.31;100216.97;1663667;84;25737;-75
2022/02/04 09:48:57;;;;;;;45.52;22.80;;;;;;;5.48;98.32;100213.34;1696748;82;99357;-76
2022/02/04 09:51:33;;;;;;;47.50;23.95;;;;;;;5.51;98.33;100225.67;1664492;84;25404;-77
2022/02/04 10:05:57;;;;;;;46.70;24.77;;;;;;;5.58;98.14;100215.27;1696408;82;99357;-74
2022/02/04 10:12:56;;;;;;;;;;;;;;;5.66;97.90;100209.27;1654189;84;98738;-75
2022/02/04 10:15:22;;;;;;;45.33;24.85;;;;;;;5.68;97.92;100211.88;1657935;84;26038;-77
2022/02/04 10:18:04;;;;;;;47.55;23.20;;;;;;;5.62;97.88;100203.63;1663486;84;98809;-76
2022/02/04 10:20:32;;;;;;;47.43;23.22;;;;;;;5.66;97.73;100207.06;1635358;84;27417;-73
2022/02/04 10:23:00;;;;;;;47.75;22.95;;;;;;;5.68;97.82;100207.89;1675956;82;98978;-72
2022/02/04 10:25:39;;;;;;;46.95;22.73;;;;;;;5.69;97.80;100212.30;1690925;82;25760;-73
2022/02/04 10:28:22;;;;;;;47.43;23.45;;;;;;;5.71;97.67;100207.80;1691986;82;25746;-74
2022/02/04 10:31:22;;;;;;;45.65;23.12;;;;;;;5.68;97.57;100199.91;1690450;81;98660;-74
2022/02/04 10:34:00;;;;;;;45.40;23.30;;;;;;;5.66;97.42;100199.09;1684997;82;27432;-74
2022/02/04 10:36:59;;;;;;;47.38;24.02;;;;;;;5.66;97.42;100186.67;1648695;83;98718;-74
2022/02/04 10:42:25;;;;;;;47.10;22.10;;;;;;;5.70;97.42;100188.77;1668103;83;98856;-74
2022/02/04 10:44:58;;;;;;;47.13;23.52;;;;;;;5.71;97.19;100193.17;1687670;83;26051;-75
2022/02/04 10:53:40;;;;;;;39.58;20.77;;;;;;;5.71;97.03;100187.40;1688257;82;99111;-75
2022/02/04 10:56:18;;;;;;;38.53;20.27;;;;;;;5.72;97.01;100178.96;1667781;83;25985;-76
2022/02/04 10:58:44;;;;;;;42.33;21.07;;;;;;;5.79;97.09;100181.84;1684511;82;26172;-74
2022/02/04 11:03:25;;;;;;;41.13;20.72;;;;;;;5.90;96.99;100174.43;1677070;83;26421;-76
2022/02/04 11:06:06;;;;;;;47.55;22.00;;;;;;;5.91;96.53;100173.52;1647406;84;98709;-75
2022/02/04 11:11:17;;;;;;;39.15;19.50;;;;;;;5.99;96.74;100171.48;1670070;82;98956;-78
2022/02/04 11:36:14;;;;;;;36.40;19.92;;;;;;;6.14;96.46;100133.73;1683982;82;99115;-76
2022/02/04 11:51:03;;;;;;;39.45;20.32;;;;;;;6.22;95.84;100129.48;1593731;86;25989;-75
2022/02/04 11:53:25;;;;;;;41.10;20.37;;;;;;;6.26;96.08;100139.56;1654435;81;98907;-77
2022/02/04 11:55:49;;;;;;;38.10;19.48;;;;;;;6.24;95.81;100130.76;1666370;83;27651;-78
2022/02/04 11:58:15;;;;;;;40.43;20.55;;;;;;;6.23;95.82;100126.36;1690156;82;26598;-76
2022/02/04 12:00:42;;;;;;;36.40;18.02;;;;;;;6.27;95.79;100124.00;1669829;82;98767;-77
2022/02/04 12:03:35;;;;;;;34.45;19.35;;;;;;;6.30;95.42;100129.22;1655211;84;26355;-75
2022/02/04 12:05:58;;;;;;;45.20;20.70;;;;;;;6.29;95.42;100118.16;1668892;83;98782;-75
2022/02/04 12:08:27;;;;;;;40.38;20.12;;;;;;;6.30;95.45;100110.12;1670383;83;27286;-74
2022/02/04 12:10:56;;;;;;;45.55;20.12;;;;;;;6.36;95.52;100117.03;1681023;82;99016;-76
2022/02/04 12:13:24;;;;;;;39.33;19.90;;;;;;;6.37;95.35;100120.10;1664759;83;26866;-74
2022/02/04 12:16:06;;;;;;;39.08;19.20;;;;;;;6.34;95.06;100105.11;1644995;83;26791;-76
2022/02/04 12:18:41;;;;;;;37.13;18.92;;;;;;;6.34;95.14;100110.89;1686634;82;98769;-76
2022/02/04 12:21:12;;;;;;;33.35;18.90;;;;;;;6.32;95.08;100112.73;1646170;84;27420;-75
2022/02/04 12:23:43;;;;;;;;;;;;;;;6.29;94.94;100102.20;1689722;82;98738;-71
2022/02/04 12:26:16;;;;;;;32.03;17.02;;;;;;;6.28;94.89;100101.79;1672113;83;25805;-75
2022/02/04 12:29:05;;;;;;;36.28;17.37;;;;;;;6.25;94.86;100094.78;1621074;86;27155;-76
2022/02/04 12:31:42;;;;;;;34.55;18.92;;;;;;;6.26;94.86;100098.31;1688108;82;99207;-77
2022/02/04 12:34:13;;;;;;;32.67;17.77;;;;;;;6.29;94.84;100092.42;1691009;82;29002;-77
2022/02/04 12:36:48;;;;;;;33.25;17.73;;;;;;;6.34;94.86;100089.59;1690894;82;99148;-77
2022/02/04 12:39:18;;;;;;;34.33;18.32;;;;;;;6.40;94.84;100086.72;1666432;84;26560;-76
2022/02/04 12:41:54;;;;;;;33.98;17.12;;;;;;;6.44;94.79;100087.02;1648454;84;99024;-71
2022/02/04 12:44:30;;;;;;;30.12;16.37;;;;;;;6.48;94.65;100085.98;1667462;83;25929;-72
2022/02/04 12:47:01;;;;;;;25.37;15.00;;;;;;;6.50;94.41;100083.69;1647154;84;27462;-75
2022/02/04 12:49:31;;;;;;;33.10;14.73;;;;;;;6.52;94.48;100080.97;1702643;82;98414;-76
2022/02/04 12:52:10;;;;;;;29.02;15.18;;;;;;;6.56;94.44;100082.59;1703619;82;31641;-77
2022/02/04 12:54:49;;;;;;;28.17;15.10;;;;;;;6.55;94.34;100083.52;1706175;82;99155;-75
2022/02/04 13:00:20;;;;;;;33.95;16.93;;;;;;;6.55;94.13;100080.86;1707734;82;98884;-77
2022/02/04 13:08:13;;;;;;;41.02;26.00;;;;;;;6.57;94.05;100070.15;1703704;82;25818;-75
2022/02/04 13:10:35;;;;;;;56.35;34.20;;;;;;;6.55;93.93;100063.55;1694997;82;26645;-75
2022/02/04 13:13:11;;;;;;;39.80;24.27;;;;;;;6.53;93.85;100052.08;1697307;82;98753;-77
2022/02/04 13:15:40;;;;;;;34.85;19.02;;;;;;;6.50;93.70;100057.06;1699484;82;25738;-77
2022/02/04 13:18:09;;;;;;;36.17;19.45;;;;;;;6.48;93.46;100049.59;1707674;82;98818;-78
2022/02/04 13:20:39;;;;;;;30.37;18.92;;;;;;;6.48;93.63;100037.61;1708206;82;26113;-78
2022/02/04 13:23:13;;;;;;;41.03;23.60;;;;;;;6.55;92.81;100034.72;1706400;82;25840;-77
2022/02/04 13:25:46;;;;;;;38.55;21.27;;;;;;;6.57;93.46;100033.73;1707464;82;98388;-76
2022/02/04 13:28:21;;;;;;;31.70;18.50;;;;;;;6.59;93.42;100024.37;1705387;82;26707;-74
2022/02/04 13:31:01;;;;;;;34.23;18.07;;;;;;;6.61;93.43;100026.05;1705511;82;98662;-76
2022/02/04 13:33:35;;;;;;;31.95;18.52;;;;;;;6.61;93.16;100023.84;1707248;82;26411;-76
2022/02/04 13:39:01;;;;;;;29.57;15.03;;;;;;;6.60;92.96;100020.78;1701840;82;29207;-78
2022/02/04 13:41:57;;;;;;;28.60;16.30;;;;;;;6.57;93.13;100016.89;1707336;82;98449;-79
2022/02/04 13:44:44;;;;;;;26.07;14.87;;;;;;;6.55;93.15;100015.62;1699690;82;26535;-77
2022/02/04 13:57:51;;;;;;;21.75;12.18;;;;;;;6.43;92.53;100010.75;1705392;82;25818;-76
2022/02/04 14:00:43;;;;;;;26.45;13.00;;;;;;;6.40;92.84;100006.86;1665389;83;98867;-76
2022/02/04 14:03:16;;;;;;;24.05;12.58;;;;;;;6.38;92.82;100007.39;1650560;84;25726;-76
2022/02/04 14:05:59;;;;;;;26.35;13.70;;;;;;;6.35;92.70;100004.83;1702114;82;98880;-75
2022/02/04 14:08:30;;;;;;;26.62;13.35;;;;;;;6.29;92.67;100000.60;1706498;82;25692;-76
2022/02/04 14:11:00;;;;;;;25.62;13.80;;;;;;;6.29;92.66;100005.05;1660288;84;25792;-78
2022/02/04 14:13:28;;;;;;;22.25;12.30;;;;;;;6.29;92.68;99999.73;1648790;85;98985;-77
2022/02/04 14:15:59;;;;;;;24.92;11.25;;;;;;;6.29;92.55;100010.37;1677181;83;26528;-76
2022/02/04 14:18:30;;;;;;;27.48;13.40;;;;;;;6.28;92.59;100017.95;1664434;84;98955;-77
2022/02/04 14:20:57;;;;;;;21.25;12.50;;;;;;;6.26;92.37;100018.01;1644238;84;25781;-76
2022/02/04 14:23:24;;;;;;;24.43;12.73;;;;;;;6.25;92.35;100019.39;1674574;83;98960;-74
2022/02/04 14:25:59;;;;;;;20.85;10.53;;;;;;;6.23;92.36;100018.12;1691840;82;26482;-76
2022/02/04 14:28:34;;;;;;;25.48;12.10;;;;;;;6.25;92.37;100011.41;1669165;83;25925;-76
2022/02/04 14:31:00;;;;;;;21.33;11.05;;;;;;;6.24;92.07;100007.88;1649700;84;98941;-76
2022/02/04 14:36:16;;;;;;;23.30;11.22;;;;;;;6.23;92.23;100002.16;1675367;83;98738;-76
2022/02/04 14:52:38;;;;;;;18.98;10.38;;;;;;;6.14;91.94;99993.16;1683699;83;25986;-76
2022/02/04 14:54:50;;;;;;;20.68;9.80;;;;;;;6.10;91.85;99988.42;1672697;83;98851;-77
2022/02/04 15:02:45;;;;;;;23.92;11.22;;;;;;;6.06;91.79;99989.91;1702040;82;25811;-74
2022/02/04 15:05:12;;;;;;;26.30;12.20;;;;;;;6.05;91.71;99990.38;1709843;82;26524;-74
2022/02/04 15:07:39;;;;;;;31.80;14.80;;;;;;;6.05;91.84;99982.39;1701151;82;98937;-75
2022/02/04 15:10:12;;;;;;;24.00;12.30;;;;;;;6.04;91.82;99981.11;1702715;82;27465;-76
2022/02/04 15:12:34;;;;;;;22.50;12.63;;;;;;;6.05;91.84;99984.18;1700112;82;99002;-76
2022/02/04 15:15:00;;;;;;;26.93;13.83;;;;;;;6.04;91.79;99979.32;1670043;83;26499;-77
2022/02/04 15:17:26;;;;;;;30.62;13.83;;;;;;;6.03;91.77;99972.27;1701636;82;25771;-78
2022/02/04 15:19:52;;;;;;;27.07;12.98;;;;;;;6.01;91.79;99975.44;1697908;82;98807;-78
2022/02/04 15:22:23;;;;;;;25.62;14.05;;;;;;;6.03;91.83;99970.94;1701694;82;27973;-77
2022/02/04 15:24:51;;;;;;;27.10;14.15;;;;;;;6.02;91.72;99963.87;1702031;83;98809;-78
2022/02/04 15:27:13;;;;;;;22.07;12.65;;;;;;;6.01;91.49;99963.93;1670620;83;25891;-78
2022/02/04 15:29:44;;;;;;;23.90;12.55;;;;;;;6.01;91.75;99963.93;1666870;83;26000;-77
2022/02/04 15:32:07;;;;;;;23.12;12.35;;;;;;;6.00;91.74;99959.07;1665958;83;97508;-78
2022/02/04 15:34:34;;;;;;;22.65;12.43;;;;;;;5.99;91.57;99953.80;1666588;84;28431;-78
2022/02/04 15:37:01;;;;;;;22.22;11.75;;;;;;;5.96;91.70;99944.61;1693134;83;98865;-78
2022/02/04 15:39:29;;;;;;;25.92;12.60;;;;;;;5.99;91.75;99944.03;1664461;84;25836;-78
2022/02/04 15:42:02;;;;;;;26.75;12.98;;;;;;;5.98;91.65;99936.11;1657176;84;99196;-77
2022/02/04 15:47:24;;;;;;;22.27;11.80;;;;;;;5.98;91.73;99935.65;1661800;84;27530;-77
2022/02/04 15:50:01;;;;;;;26.93;12.88;;;;;;;5.96;91.74;99925.52;1671035;84;98946;-76
2022/02/04 15:55:22;;;;;;;26.62;12.53;;;;;;;5.97;91.70;99920.61;1674811;82;98787;-76
2022/02/04 16:00:27;;;;;;;33.63;13.03;;;;;;;5.94;91.67;99907.42;1700164;82;98698;-76
2022/02/04 16:02:39;;;;;;;26.10;12.73;;;;;;;5.93;91.53;99907.02;1693969;83;26558;-76
2022/02/04 16:04:53;;;;;;;24.67;11.83;;;;;;;5.94;91.64;99914.53;1695422;83;25853;-77
2022/02/04 16:07:21;;;;;;;26.62;11.78;;;;;;;5.93;91.68;99909.67;1694613;82;98817;-78
2022/02/04 16:09:52;;;;;;;24.87;12.23;;;;;;;5.93;91.66;99911.01;1701779;82;25908;-77
2022/02/04 16:12:22;;;;;;;25.97;12.45;;;;;;;5.94;91.63;99907.88;1696762;82;99064;-77
2022/02/04 16:14:52;;;;;;;26.17;11.88;;;;;;;5.93;91.46;99909.67;1698870;83;25775;-77
2022/02/04 16:17:19;;;;;;;26.27;13.48;;;;;;;5.93;91.63;99908.80;1696771;82;26455;-79
2022/02/04 16:19:46;;;;;;;25.20;12.93;;;;;;;5.91;91.59;99906.66;1692517;83;98429;-79
2022/02/04 16:22:29;;;;;;;24.05;11.22;;;;;;;5.91;91.50;99906.66;1701131;82;26527;-78
2022/02/04 16:25:12;;;;;;;19.17;9.65;;;;;;;5.88;91.35;99895.18;1693422;82;98607;-79
2022/02/04 16:30:00;;;;;;;19.52;9.50;;;;;;;5.86;91.42;99890.38;1708863;82;98591;-76
2022/02/04 16:32:30;;;;;;;27.80;12.07;;;;;;;5.86;91.47;99894.37;1697444;82;27790;-77
2022/02/04 16:35:00;;;;;;;24.07;10.43;;;;;;;5.85;91.46;99889.97;1670227;84;25831;-77
2022/02/04 16:37:30;;;;;;;18.20;9.38;;;;;;;5.84;91.44;99886.04;1695110;83;98646;-78
2022/02/04 16:39:58;;;;;;;24.95;10.65;;;;;;;5.84;91.30;99888.23;1702848;82;25329;-77
2022/02/04 16:42:24;;;;;;;26.30;12.25;;;;;;;5.83;91.40;99881.64;1696387;82;98705;-78
2022/02/04 16:44:50;;;;;;;25.02;11.68;;;;;;;5.82;91.30;99882.11;1702228;82;25894;-78
2022/02/04 16:47:17;;;;;;;25.37;11.78;;;;;;;5.82;91.37;99881.23;1696002;83;26508;-78
2022/02/04 16:49:43;;;;;;;26.17;12.80;;;;;;;5.80;91.32;99881.29;1697629;83;98541;-78
2022/02/04 16:52:10;;;;;;;26.40;12.55;;;;;;;5.81;91.35;99875.52;1703091;82;26007;-79
2022/02/04 16:54:37;;;;;;;30.02;13.05;;;;;;;5.81;91.33;99867.53;1699212;83;98506;-78